Thunderstorms From: 15-12-2017 06:00 Until: 16-12-2017 06:00 warning for: Thunderstorms Level: Yellow info button

Although rather usual in this region, locally or potentially dangerous phenomena are expected. (such as local winds, summer thunderstorms, rising streams or high waves) Be aware and pay attention to the latest weather updates, especially if you carry out activities exposed to weather or close to a stream or shoreline. 


Meteo18 Weather Cam more information Meteo18 Weather Cam


warning for Thunderstorms more information blitzortung!


Rain radar more information rain snow radar


Visit our other weather sites:

Template documentation
and downloads

And another site



Weather Underground History page Text

Daily Summary for February 26, 2016 Units:  Metric    English   Both
« Previous Day
Next Day »
Daily Weekly Monthly Yearly Custom
  High: Low: Average:
Temperature: 7.4 °C -1.4 °C 2.9 °C
Dew Point: 2.8 °C -3.5 °C -1 °C
Humidity: 93 % 47 % 77 %
Wind Speed: 8.0 km/h 0.0 km/h 0.3 km/h
Wind Gust: 11.3 km/h - -
Wind:- - SSW
Pressure: 1015.8 hPa 1000.9 hPa -
Precipitation: 0.0 mm    
Historical Graphs
 
 
Tabular Data for February 26, 2016
Time Temperature Dew Point Pressure Wind Wind Speed Wind Gust Humidity Rainfall Rate (Hourly)
00:02 2.5 °C 0.2 °C 1015.8 hPa Calm   1.6 km/h 85 % 0.0 mm
00:07 2.6 °C 0.2 °C 1015.8 hPa Calm   1.6 km/h 84 % 0.0 mm
00:12 2.6 °C -0.2 °C 1015.8 hPa Calm   1.6 km/h 82 % 0.0 mm
00:22 2.7 °C -0.2 °C 1015.5 hPa Calm   1.6 km/h 81 % 0.0 mm
00:37 2.6 °C 0.2 °C 1015.5 hPa Calm   1.6 km/h 84 % 0.0 mm
00:42 2.6 °C 0.7 °C 1015.5 hPa Calm   1.6 km/h 87 % 0.0 mm
00:47 2.5 °C 0.4 °C 1015.5 hPa Calm     86 % 0.0 mm
00:52 2.4 °C 0.0 °C 1015.5 hPa Calm     84 % 0.0 mm
00:57 2.5 °C -0.1 °C 1015.5 hPa Calm     83 % 0.0 mm
01:02 2.6 °C 0.5 °C 1015.5 hPa Calm     86 % 0.0 mm
01:07 2.5 °C 0.4 °C 1015.5 hPa Calm     86 % 0.0 mm
01:12 2.4 °C 0.5 °C 1015.5 hPa Calm   1.6 km/h 87 % 0.0 mm
01:17 2.4 °C 0.5 °C 1015.5 hPa Calm   1.6 km/h 87 % 0.0 mm
01:22 2.4 °C 0.5 °C 1015.5 hPa Calm   1.6 km/h 87 % 0.0 mm
01:32 2.3 °C 0.5 °C 1015.5 hPa Calm   1.6 km/h 88 % 0.0 mm
01:37 2.3 °C 0.4 °C 1015.1 hPa Calm   1.6 km/h 87 % 0.0 mm
01:42 2.3 °C 0.2 °C 1015.1 hPa Calm   1.6 km/h 86 % 0.0 mm
01:47 2.3 °C 0.2 °C 1015.1 hPa Calm   1.6 km/h 86 % 0.0 mm
01:52 2.2 °C 0.1 °C 1015.1 hPa Calm   1.6 km/h 86 % 0.0 mm
01:57 2.2 °C 0.1 °C 1014.8 hPa Calm     86 % 0.0 mm
02:02 2.2 °C 0.3 °C 1014.8 hPa Calm     87 % 0.0 mm
02:07 2.2 °C 0.4 °C 1014.8 hPa Calm     88 % 0.0 mm
02:12 2.3 °C 0.8 °C 1014.8 hPa Calm   1.6 km/h 90 % 0.0 mm
02:17 2.3 °C 0.8 °C 1014.8 hPa Calm   1.6 km/h 90 % 0.0 mm
02:22 2.2 °C 0.7 °C 1014.8 hPa Calm   1.6 km/h 90 % 0.0 mm
02:27 2.2 °C 0.6 °C 1014.8 hPa Calm   1.6 km/h 89 % 0.0 mm
02:32 2.2 °C 0.6 °C 1014.4 hPa Calm   1.6 km/h 89 % 0.0 mm
02:37 2.1 °C 0.5 °C 1014.8 hPa Calm     89 % 0.0 mm
02:42 2.1 °C 0.5 °C 1014.4 hPa Calm     89 % 0.0 mm
02:52 2.1 °C 0.3 °C 1014.4 hPa Calm     88 % 0.0 mm
02:57 2.2 °C 0.6 °C 1014.4 hPa Calm     89 % 0.0 mm
03:02 2.2 °C 0.4 °C 1014.4 hPa Calm     88 % 0.0 mm
03:12 2.2 °C 0.7 °C 1014.4 hPa Calm     90 % 0.0 mm
03:17 2.2 °C 0.7 °C 1014.1 hPa Calm     90 % 0.0 mm
03:22 2.2 °C 0.6 °C 1014.1 hPa Calm     89 % 0.0 mm
03:32 2.2 °C 0.6 °C 1013.8 hPa Calm     89 % 0.0 mm
03:37 2.2 °C 0.6 °C 1013.8 hPa Calm     89 % 0.0 mm
03:42 2.2 °C 0.6 °C 1013.8 hPa Calm     89 % 0.0 mm
03:47 2.2 °C 0.4 °C 1013.8 hPa Calm     88 % 0.0 mm
03:52 2.2 °C 0.3 °C 1013.8 hPa Calm     87 % 0.0 mm
03:57 2.2 °C 0.4 °C 1013.8 hPa Calm     88 % 0.0 mm
04:02 2.2 °C 0.4 °C 1013.8 hPa Calm     88 % 0.0 mm
04:07 2.2 °C 0.6 °C 1013.8 hPa Calm     89 % 0.0 mm
04:12 2.1 °C 0.5 °C 1013.8 hPa Calm     89 % 0.0 mm
04:17 2.1 °C 0.6 °C 1013.4 hPa Calm     90 % 0.0 mm
04:22 2.0 °C 0.5 °C 1013.4 hPa Calm     90 % 0.0 mm
04:27 2.0 °C 0.5 °C 1013.1 hPa Calm     90 % 0.0 mm
04:32 2.0 °C 0.7 °C 1013.1 hPa Calm     91 % 0.0 mm
04:37 1.9 °C 0.4 °C 1013.1 hPa Calm     90 % 0.0 mm
04:42 1.9 °C 0.6 °C 1013.1 hPa Calm     91 % 0.0 mm
04:47 1.9 °C 0.4 °C 1013.1 hPa Calm     90 % 0.0 mm
04:52 1.9 °C 0.4 °C 1013.1 hPa Calm     90 % 0.0 mm
04:57 1.8 °C 0.3 °C 1012.8 hPa Calm     90 % 0.0 mm
05:02 1.8 °C 0.3 °C 1012.8 hPa Calm     90 % 0.0 mm
05:07 1.8 °C 0.3 °C 1012.8 hPa Calm     90 % 0.0 mm
05:17 1.8 °C 0.3 °C 1012.8 hPa Calm     90 % 0.0 mm
05:22 1.8 °C 0.3 °C 1012.8 hPa Calm     90 % 0.0 mm
05:32 1.7 °C 0.1 °C 1012.8 hPa Calm     89 % 0.0 mm
05:37 1.7 °C 0.1 °C 1012.8 hPa Calm     89 % 0.0 mm
05:47 1.8 °C 0.3 °C 1012.8 hPa Calm     90 % 0.0 mm
05:52 1.7 °C 0.2 °C 1012.8 hPa Calm     90 % 0.0 mm
05:57 1.7 °C 0.2 °C 1012.8 hPa Calm     90 % 0.0 mm
06:02 1.7 °C 0.2 °C 1012.4 hPa Calm     90 % 0.0 mm
06:12 1.6 °C 0.1 °C 1012.4 hPa Calm     90 % 0.0 mm
06:17 1.6 °C 0.1 °C 1012.4 hPa Calm     90 % 0.0 mm
06:22 1.5 °C 0.2 °C 1012.4 hPa Calm     91 % 0.0 mm
06:32 1.4 °C 0.1 °C 1012.4 hPa Calm     91 % 0.0 mm
06:37 1.4 °C 0.1 °C 1012.1 hPa Calm     91 % 0.0 mm
06:42 1.4 °C 0.1 °C 1012.1 hPa Calm     91 % 0.0 mm
06:47 1.3 °C 0.0 °C 1012.1 hPa Calm     91 % 0.0 mm
06:52 1.3 °C 0.0 °C 1012.1 hPa Calm     91 % 0.0 mm
07:02 1.3 °C 0.1 °C 1012.1 hPa Calm     92 % 0.0 mm
07:12 1.3 °C 0.1 °C 1011.7 hPa Calm     92 % 0.0 mm
07:17 1.3 °C 0.1 °C 1011.7 hPa Calm     92 % 0.0 mm
07:22 1.3 °C 0.1 °C 1011.7 hPa Calm     92 % 0.0 mm
07:27 1.3 °C 0.3 °C 1011.7 hPa Calm     93 % 0.0 mm
07:32 1.3 °C 0.3 °C 1011.7 hPa Calm     93 % 0.0 mm
07:37 1.2 °C 0.2 °C 1011.7 hPa Calm     93 % 0.0 mm
07:42 1.2 °C 0.2 °C 1011.7 hPa Calm     93 % 0.0 mm
07:47 1.2 °C 0.2 °C 1011.7 hPa Calm     93 % 0.0 mm
07:52 1.2 °C 0.2 °C 1012.1 hPa Calm     93 % 0.0 mm
08:02 1.3 °C 0.3 °C 1011.7 hPa Calm     93 % 0.0 mm
08:07 1.3 °C 0.3 °C 1011.7 hPa Calm     93 % 0.0 mm
08:12 1.3 °C 0.3 °C 1011.7 hPa Calm     93 % 0.0 mm
08:17 1.3 °C 0.3 °C 1011.7 hPa Calm     93 % 0.0 mm
08:22 1.3 °C 0.3 °C 1011.7 hPa Calm     93 % 0.0 mm
08:32 1.3 °C 0.3 °C 1011.7 hPa Calm     93 % 0.0 mm
08:37 1.4 °C 0.4 °C 1011.7 hPa Calm     93 % 0.0 mm
08:42 1.4 °C 0.4 °C 1011.7 hPa Calm     93 % 0.0 mm
08:47 1.6 °C 0.6 °C 1011.7 hPa Calm     93 % 0.0 mm
08:52 1.6 °C 0.6 °C 1011.7 hPa Calm     93 % 0.0 mm
08:57 1.7 °C 0.7 °C 1011.7 hPa Calm     93 % 0.0 mm
09:02 1.8 °C 0.8 °C 1011.7 hPa Calm     93 % 0.0 mm
09:07 1.9 °C 0.9 °C 1011.7 hPa Calm     93 % 0.0 mm
09:12 1.9 °C 0.9 °C 1011.7 hPa Calm     93 % 0.0 mm
09:22 2.2 °C 1.0 °C 1011.7 hPa Calm     92 % 0.0 mm
09:27 2.2 °C 0.9 °C 1011.7 hPa Calm     91 % 0.0 mm
09:32 2.4 °C 1.1 °C 1011.7 hPa Calm     91 % 0.0 mm
09:37 2.5 °C 1.2 °C 1011.7 hPa Calm     91 % 0.0 mm
09:42 2.6 °C 1.1 °C 1011.7 hPa Calm     90 % 0.0 mm
09:47 2.6 °C 1.0 °C 1011.4 hPa Calm   1.6 km/h 89 % 0.0 mm
09:57 2.8 °C 1.2 °C 1011.4 hPa Calm   1.6 km/h 89 % 0.0 mm
10:02 2.9 °C 1.0 °C 1011.4 hPa Calm   1.6 km/h 87 % 0.0 mm
10:07 3.0 °C 1.0 °C 1011.4 hPa Calm   1.6 km/h 87 % 0.0 mm
10:12 3.1 °C 1.0 °C 1011.1 hPa Calm   1.6 km/h 86 % 0.0 mm
10:22 3.3 °C 1.0 °C 1011.1 hPa Calm   1.6 km/h 85 % 0.0 mm
10:27 3.4 °C 1.1 °C 1011.1 hPa Calm   1.6 km/h 85 % 0.0 mm
10:32 3.6 °C 1.0 °C 1011.1 hPa Calm   1.6 km/h 83 % 0.0 mm
10:37 3.8 °C 1.2 °C 1011.1 hPa Calm   1.6 km/h 83 % 0.0 mm
10:42 4.1 °C 1.5 °C 1011.1 hPa Calm   1.6 km/h 83 % 0.0 mm
10:47 4.2 °C 1.6 °C 1010.7 hPa Calm   1.6 km/h 83 % 0.0 mm
10:52 4.4 °C 1.8 °C 1010.7 hPa Calm   1.6 km/h 83 % 0.0 mm
10:57 4.8 °C 1.5 °C 1010.7 hPa Calm   1.6 km/h 79 % 0.0 mm
11:02 5.2 °C 1.9 °C 1010.4 hPa Calm     79 % 0.0 mm
11:07 5.8 °C 1.9 °C 1010.7 hPa Calm     76 % 0.0 mm
11:12 5.9 °C 2.2 °C 1010.4 hPa Calm     77 % 0.0 mm
11:17 6.2 °C 2.8 °C 1010.4 hPa Calm   1.6 km/h 79 % 0.0 mm
11:22 6.1 °C 0.8 °C 1010.4 hPa Calm   1.6 km/h 69 % 0.0 mm
11:27 6.3 °C 0.6 °C 1010.4 hPa Calm   1.6 km/h 67 % 0.0 mm
11:32 6.3 °C 1.2 °C 1010.0 hPa Calm   1.6 km/h 70 % 0.0 mm
11:37 6.5 °C 0.4 °C 1010.0 hPa WSW 3.2 km/h 3.2 km/h 65 % 0.0 mm
11:42 6.3 °C 0.2 °C 1010.0 hPa Calm   1.6 km/h 65 % 0.0 mm
11:47 6.4 °C 0.9 °C 1010.0 hPa Calm   4.8 km/h 68 % 0.0 mm
11:52 6.4 °C 0.7 °C 1010.0 hPa Calm   4.8 km/h 67 % 0.0 mm
11:57 6.3 °C 0.6 °C 1010.0 hPa West 4.8 km/h 9.7 km/h 67 % 0.0 mm
12:02 6.4 °C 0.3 °C 1010.0 hPa SSE 1.6 km/h 9.7 km/h 65 % 0.0 mm
12:12 6.6 °C -1.1 °C 1010.0 hPa West 1.6 km/h 9.7 km/h 58 % 0.0 mm
12:17 6.4 °C -1.5 °C 1010.0 hPa WSW 3.2 km/h 6.4 km/h 57 % 0.0 mm
12:22 6.7 °C 0.4 °C 1010.0 hPa Calm   6.4 km/h 64 % 0.0 mm
12:32 6.6 °C -1.1 °C 1009.7 hPa West 1.6 km/h 4.8 km/h 58 % 0.0 mm
12:37 6.3 °C -2.3 °C 1009.7 hPa North 1.6 km/h 4.8 km/h 54 % 0.0 mm
12:42 6.2 °C -1.7 °C 1009.7 hPa Calm   9.7 km/h 57 % 0.0 mm
12:52 6.0 °C -0.5 °C 1009.4 hPa Calm   4.8 km/h 63 % 0.0 mm
13:02 6.1 °C -2.8 °C 1009.4 hPa Calm   3.2 km/h 53 % 0.0 mm
13:07 6.1 °C -2.5 °C 1009.0 hPa Calm   3.2 km/h 54 % 0.0 mm
13:12 6.4 °C -2.7 °C 1009.0 hPa Calm   3.2 km/h 52 % 0.0 mm
13:22 6.9 °C -2.5 °C 1008.7 hPa WSW 1.6 km/h 3.2 km/h 51 % 0.0 mm
13:27 7.1 °C -2.4 °C 1008.4 hPa Calm   6.4 km/h 51 % 0.0 mm
13:32 7.2 °C -1.7 °C 1008.4 hPa West 1.6 km/h 6.4 km/h 53 % 0.0 mm
13:37 7.1 °C -2.9 °C 1008.4 hPa Calm   6.4 km/h 49 % 0.0 mm
13:42 7.1 °C -3.5 °C 1008.4 hPa Calm   6.4 km/h 47 % 0.0 mm
13:47 7.2 °C -2.5 °C 1008.0 hPa WSW 1.6 km/h 6.4 km/h 50 % 0.0 mm
13:52 7.4 °C -2.1 °C 1008.0 hPa Calm   6.4 km/h 51 % 0.0 mm
13:57 7.3 °C -2.4 °C 1008.0 hPa Calm   6.4 km/h 50 % 0.0 mm
14:02 6.9 °C -2.5 °C 1007.7 hPa Calm   6.4 km/h 51 % 0.0 mm
14:12 6.7 °C -2.7 °C 1007.7 hPa WNW 1.6 km/h 6.4 km/h 51 % 0.0 mm
14:17 6.9 °C -2.3 °C 1007.3 hPa Calm   6.4 km/h 52 % 0.0 mm
14:22 6.9 °C -2.3 °C 1007.3 hPa ENE 1.6 km/h 4.8 km/h 52 % 0.0 mm
14:32 6.9 °C -2.5 °C 1007.3 hPa North 3.2 km/h 6.4 km/h 51 % 0.0 mm
14:37 6.8 °C -2.6 °C 1007.3 hPa Calm   6.4 km/h 51 % 0.0 mm
14:42 6.9 °C -1.5 °C 1007.0 hPa Calm   4.8 km/h 55 % 0.0 mm
14:47 7.1 °C -1.8 °C 1007.0 hPa East 1.6 km/h 4.8 km/h 53 % 0.0 mm
14:52 7.0 °C -1.9 °C 1007.0 hPa Calm   4.8 km/h 53 % 0.0 mm
14:57 7.1 °C -2.1 °C 1007.0 hPa SE 1.6 km/h 1.6 km/h 52 % 0.0 mm
15:02 7.0 °C -3.0 °C 1006.7 hPa Calm   1.6 km/h 49 % 0.0 mm
15:12 6.7 °C -2.7 °C 1006.7 hPa WNW 8.0 km/h 8.0 km/h 51 % 0.0 mm
15:17 6.6 °C -2.6 °C 1006.7 hPa ESE 1.6 km/h 8.0 km/h 52 % 0.0 mm
15:22 6.5 °C -3.2 °C 1006.3 hPa Calm   8.0 km/h 50 % 0.0 mm
15:27 6.4 °C -2.7 °C 1006.3 hPa SE 1.6 km/h 8.0 km/h 52 % 0.0 mm
15:32 6.3 °C -2.1 °C 1006.3 hPa SE 1.6 km/h 8.0 km/h 55 % 0.0 mm
15:37 6.3 °C -2.6 °C 1006.3 hPa Calm   4.8 km/h 53 % 0.0 mm
15:42 6.3 °C -2.6 °C 1006.3 hPa Calm   4.8 km/h 53 % 0.0 mm
15:47 6.8 °C -1.9 °C 1006.3 hPa Calm   3.2 km/h 54 % 0.0 mm
15:52 6.8 °C -2.9 °C 1006.0 hPa Calm   3.2 km/h 50 % 0.0 mm
15:57 6.8 °C -2.4 °C 1006.0 hPa WNW 3.2 km/h 6.4 km/h 52 % 0.0 mm
16:02 6.7 °C -2.7 °C 1006.0 hPa NNW 1.6 km/h 6.4 km/h 51 % 0.0 mm
16:07 6.7 °C -2.5 °C 1006.0 hPa WNW 1.6 km/h 6.4 km/h 52 % 0.0 mm
16:12 7.1 °C -2.1 °C 1006.0 hPa NNW 1.6 km/h 8.0 km/h 52 % 0.0 mm
16:17 7.1 °C -1.8 °C 1005.6 hPa Calm   8.0 km/h 53 % 0.0 mm
16:22 6.9 °C -2.3 °C 1005.6 hPa NW 3.2 km/h 6.4 km/h 52 % 0.0 mm
16:32 6.3 °C -2.6 °C 1005.6 hPa NNW 1.6 km/h 9.7 km/h 53 % 0.0 mm
16:47 6.4 °C -2.5 °C 1005.3 hPa NNW 1.6 km/h 8.0 km/h 53 % 0.0 mm
16:52 6.3 °C -2.1 °C 1005.3 hPa NW 1.6 km/h 6.4 km/h 55 % 0.0 mm
16:57 6.2 °C -2.4 °C 1005.0 hPa Calm   6.4 km/h 54 % 0.0 mm
17:02 6.2 °C -1.9 °C 1005.0 hPa Calm   6.4 km/h 56 % 0.0 mm
17:12 5.8 °C -2.8 °C 1005.0 hPa Calm   6.4 km/h 54 % 0.0 mm
17:17 5.8 °C -2.5 °C 1005.0 hPa Calm   11.3 km/h 55 % 0.0 mm
17:27 5.9 °C -2.2 °C 1004.6 hPa Calm   11.3 km/h 56 % 0.0 mm
17:32 6.0 °C -2.6 °C 1004.6 hPa ESE 3.2 km/h 6.4 km/h 54 % 0.0 mm
17:37 5.7 °C -2.9 °C 1004.6 hPa Calm   4.8 km/h 54 % 0.0 mm
17:42 5.5 °C -2.6 °C 1004.6 hPa ESE 1.6 km/h 4.8 km/h 56 % 0.0 mm
17:47 5.3 °C -2.8 °C 1004.6 hPa Calm   4.8 km/h 56 % 0.0 mm
17:52 5.1 °C -2.7 °C 1004.6 hPa Calm   4.8 km/h 57 % 0.0 mm
17:57 4.9 °C -2.7 °C 1004.6 hPa Calm   4.8 km/h 58 % 0.0 mm
18:07 4.5 °C -3.0 °C 1004.3 hPa Calm   4.8 km/h 58 % 0.0 mm
18:12 4.3 °C -2.8 °C 1004.3 hPa Calm   4.8 km/h 60 % 0.0 mm
18:17 4.1 °C -2.3 °C 1004.3 hPa Calm   1.6 km/h 63 % 0.0 mm
18:22 3.8 °C -2.6 °C 1004.3 hPa Calm   1.6 km/h 63 % 0.0 mm
18:27 3.6 °C -2.6 °C 1004.6 hPa Calm   1.6 km/h 64 % 0.0 mm
18:37 3.1 °C -2.6 °C 1004.3 hPa Calm   1.6 km/h 66 % 0.0 mm
18:47 2.5 °C -2.6 °C 1004.6 hPa Calm   1.6 km/h 69 % 0.0 mm
18:52 2.2 °C -2.5 °C 1004.3 hPa Calm     71 % 0.0 mm
18:57 1.9 °C -2.6 °C 1004.3 hPa Calm     72 % 0.0 mm
19:02 1.7 °C -2.6 °C 1004.3 hPa Calm     73 % 0.0 mm
19:12 1.5 °C -2.6 °C 1004.3 hPa Calm     74 % 0.0 mm
19:17 1.5 °C -2.8 °C 1004.3 hPa Calm     73 % 0.0 mm
19:22 1.7 °C -2.8 °C 1004.3 hPa Calm   1.6 km/h 72 % 0.0 mm
19:27 1.7 °C -2.8 °C 1003.9 hPa Calm   1.6 km/h 72 % 0.0 mm
19:32 1.8 °C -2.9 °C 1003.9 hPa Calm   1.6 km/h 71 % 0.0 mm
19:37 2.0 °C -2.9 °C 1003.9 hPa Calm   1.6 km/h 70 % 0.0 mm
19:47 2.0 °C -3.1 °C 1003.9 hPa Calm   1.6 km/h 69 % 0.0 mm
19:52 1.8 °C -2.7 °C 1003.9 hPa Calm   1.6 km/h 72 % 0.0 mm
19:57 1.6 °C -2.9 °C 1003.9 hPa Calm   1.6 km/h 72 % 0.0 mm
20:02 1.3 °C -2.8 °C 1003.6 hPa Calm     74 % 0.0 mm
20:12 0.7 °C -2.9 °C 1003.6 hPa Calm     77 % 0.0 mm
20:17 0.6 °C -2.8 °C 1003.6 hPa Calm     78 % 0.0 mm
20:22 0.4 °C -2.8 °C 1003.6 hPa Calm     79 % 0.0 mm
20:27 0.3 °C -2.9 °C 1003.6 hPa Calm     79 % 0.0 mm
20:32 0.2 °C -2.8 °C 1003.6 hPa Calm     80 % 0.0 mm
20:42 -0.2 °C -2.9 °C 1003.3 hPa Calm     82 % 0.0 mm
20:47 -0.3 °C -3.0 °C 1003.3 hPa Calm     82 % 0.0 mm
20:57 -0.6 °C -3.0 °C 1003.3 hPa Calm     84 % 0.0 mm
21:02 -0.7 °C -2.9 °C 1002.9 hPa Calm     85 % 0.0 mm
21:07 -0.8 °C -2.8 °C 1002.9 hPa Calm     86 % 0.0 mm
21:12 -1.0 °C -2.9 °C 1002.9 hPa Calm     87 % 0.0 mm
21:17 -1.1 °C -3.0 °C 1002.9 hPa Calm   1.6 km/h 87 % 0.0 mm
21:22 -1.2 °C -2.9 °C 1002.9 hPa Calm   1.6 km/h 88 % 0.0 mm
21:27 -1.1 °C -3.0 °C 1002.9 hPa Calm   1.6 km/h 87 % 0.0 mm
21:32 -1.1 °C -3.0 °C 1002.6 hPa NE 1.6 km/h 1.6 km/h 87 % 0.0 mm
21:37 -1.0 °C -2.9 °C 1002.6 hPa Calm   1.6 km/h 87 % 0.0 mm
21:42 -0.9 °C -2.9 °C 1002.6 hPa Calm   1.6 km/h 86 % 0.0 mm
21:52 -1.0 °C -2.9 °C 1002.6 hPa Calm   1.6 km/h 87 % 0.0 mm
21:57 -1.0 °C -2.9 °C 1002.6 hPa Calm   1.6 km/h 87 % 0.0 mm
22:02 -1.1 °C -3.0 °C 1002.3 hPa Calm     87 % 0.0 mm
22:07 -1.1 °C -3.1 °C 1002.6 hPa Calm     86 % 0.0 mm
22:12 -1.1 °C -3.1 °C 1002.3 hPa Calm   1.6 km/h 86 % 0.0 mm
22:17 -1.2 °C -3.2 °C 1002.3 hPa Calm   1.6 km/h 86 % 0.0 mm
22:22 -1.3 °C -3.2 °C 1002.3 hPa Calm   1.6 km/h 87 % 0.0 mm
22:27 -1.3 °C -3.2 °C 1002.3 hPa Calm   1.6 km/h 87 % 0.0 mm
22:32 -1.3 °C -3.2 °C 1002.3 hPa Calm     87 % 0.0 mm
22:37 -1.4 °C -3.3 °C 1002.3 hPa Calm   1.6 km/h 87 % 0.0 mm
22:47 -1.3 °C -3.2 °C 1002.3 hPa Calm   1.6 km/h 87 % 0.0 mm
22:52 -1.3 °C -3.2 °C 1002.3 hPa Calm   1.6 km/h 87 % 0.0 mm
22:57 -1.3 °C -3.3 °C 1002.3 hPa Calm   1.6 km/h 86 % 0.0 mm
23:02 -1.3 °C -3.2 °C 1001.9 hPa Calm   1.6 km/h 87 % 0.0 mm
23:07 -1.2 °C -3.1 °C 1001.9 hPa Calm   1.6 km/h 87 % 0.0 mm
23:12 -1.2 °C -3.1 °C 1001.9 hPa Calm   1.6 km/h 87 % 0.0 mm
23:22 -1.2 °C -3.1 °C 1001.6 hPa Calm   1.6 km/h 87 % 0.0 mm
23:27 -1.1 °C -3.0 °C 1001.2 hPa Calm   1.6 km/h 87 % 0.0 mm
23:32 -1.1 °C -3.1 °C 1001.2 hPa Calm   1.6 km/h 86 % 0.0 mm
23:37 -1.2 °C -3.2 °C 1001.2 hPa Calm   1.6 km/h 86 % 0.0 mm
23:42 -1.2 °C -3.2 °C 1001.2 hPa Calm   1.6 km/h 86 % 0.0 mm
23:47 -1.0 °C -3.0 °C 1001.2 hPa NNE 1.6 km/h 1.6 km/h 86 % 0.0 mm
23:52 -0.9 °C -3.1 °C 1000.9 hPa NNE 1.6 km/h 1.6 km/h 85 % 0.0 mm
23:57 -0.9 °C -3.1 °C 1000.9 hPa Calm   1.6 km/h 85 % 0.0 mm
Meteo18
Compliments of Weather Underground - 4 mb

Script developed by  Jim McMurry - jmcmurry@mwt.net Adapted for the template by  Wim van der Kuil - Leuven-Template.eu

You find our weather info also at:

European Weather Network

Weather Underground

Equipment we use:

Weather-station
Davis Vue

Weather-program
Meteohub

Weather-server
Raspberry PI 2 B+

Provider
1 and 1

Davis Vue

Meteohub

Raspberry PI 2 B+

1 and 1